sensor_id;sensor_type;location;lat;lon;timestamp;pressure;altitude;pressure_sealevel;temperature;humidity
44138;BME280;29800;55.942;37.314;2023-06-04T00:07:32;99655.91;;;6.60;71.86
44138;BME280;29800;55.942;37.314;2023-06-04T00:13:32;99659.38;;;6.49;72.32
44138;BME280;29800;55.942;37.314;2023-06-04T00:16:08;99663.22;;;6.41;72.70
44138;BME280;29800;55.942;37.314;2023-06-04T00:19:20;99667.00;;;6.40;72.49
44138;BME280;29800;55.942;37.314;2023-06-04T00:22:24;99669.34;;;6.36;73.15
44138;BME280;29800;55.942;37.314;2023-06-04T00:28:27;99670.09;;;6.25;72.65
44138;BME280;29800;55.942;37.314;2023-06-04T00:34:27;99682.66;;;6.19;72.99
44138;BME280;29800;55.942;37.314;2023-06-04T00:37:12;99680.00;;;6.13;73.02
44138;BME280;29800;55.942;37.314;2023-06-04T00:40:06;99678.56;;;6.10;73.48
44138;BME280;29800;55.942;37.314;2023-06-04T00:43:13;99680.66;;;6.08;73.06
44138;BME280;29800;55.942;37.314;2023-06-04T00:46:26;99687.38;;;6.05;73.25
44138;BME280;29800;55.942;37.314;2023-06-04T00:49:02;99687.22;;;6.00;73.28
44138;BME280;29800;55.942;37.314;2023-06-04T00:51:30;99691.63;;;5.95;73.46
44138;BME280;29800;55.942;37.314;2023-06-04T00:54:34;99688.06;;;5.94;73.52
44138;BME280;29800;55.942;37.314;2023-06-04T00:57:38;99696.06;;;5.89;73.79
44138;BME280;29800;55.942;37.314;2023-06-04T01:00:05;99692.53;;;5.82;73.57
44138;BME280;29800;55.942;37.314;2023-06-04T01:02:33;99698.41;;;5.79;73.96
44138;BME280;29800;55.942;37.314;2023-06-04T01:05:51;99705.53;;;5.80;73.68
44138;BME280;29800;55.942;37.314;2023-06-04T01:08:33;99700.31;;;5.78;73.76
44138;BME280;29800;55.942;37.314;2023-06-04T01:17:34;99714.38;;;5.68;74.18
44138;BME280;29800;55.942;37.314;2023-06-04T01:20:29;99713.75;;;5.66;73.74
44138;BME280;29800;55.942;37.314;2023-06-04T01:26:21;99719.41;;;5.65;73.97
44138;BME280;29800;55.942;37.314;2023-06-04T01:32:23;99725.66;;;5.65;74.29
44138;BME280;29800;55.942;37.314;2023-06-04T01:35:11;99726.09;;;5.62;74.59
44138;BME280;29800;55.942;37.314;2023-06-04T01:41:19;99729.06;;;5.61;74.68
44138;BME280;29800;55.942;37.314;2023-06-04T01:44:03;99724.44;;;5.61;74.80
44138;BME280;29800;55.942;37.314;2023-06-04T01:50:32;99737.00;;;5.56;75.14
44138;BME280;29800;55.942;37.314;2023-06-04T01:56:46;99746.41;;;5.53;75.22
44138;BME280;29800;55.942;37.314;2023-06-04T01:59:51;99749.13;;;5.53;75.51
44138;BME280;29800;55.942;37.314;2023-06-04T02:02:37;99750.56;;;5.56;75.62
44138;BME280;29800;55.942;37.314;2023-06-04T02:09:14;99755.34;;;5.60;75.86
44138;BME280;29800;55.942;37.314;2023-06-04T02:12:18;99762.47;;;5.61;75.91
44138;BME280;29800;55.942;37.314;2023-06-04T02:15:52;99764.53;;;5.66;76.12
44138;BME280;29800;55.942;37.314;2023-06-04T02:19:08;99759.88;;;5.73;75.95
44138;BME280;29800;55.942;37.314;2023-06-04T02:22:31;99770.72;;;5.80;76.44
44138;BME280;29800;55.942;37.314;2023-06-04T02:28:40;99778.00;;;5.86;76.72
44138;BME280;29800;55.942;37.314;2023-06-04T02:34:09;99780.44;;;5.94;76.63
44138;BME280;29800;55.942;37.314;2023-06-04T02:37:13;99777.94;;;5.99;77.13
44138;BME280;29800;55.942;37.314;2023-06-04T02:40:10;99782.28;;;6.07;77.23
44138;BME280;29800;55.942;37.314;2023-06-04T02:46:29;99795.56;;;6.22;77.50
44138;BME280;29800;55.942;37.314;2023-06-04T02:48:55;99798.44;;;6.27;77.37
44138;BME280;29800;55.942;37.314;2023-06-04T02:52:08;99803.78;;;6.40;77.12
44138;BME280;29800;55.942;37.314;2023-06-04T02:54:46;99795.34;;;6.49;77.42
44138;BME280;29800;55.942;37.314;2023-06-04T02:57:24;99801.44;;;6.69;77.43
44138;BME280;29800;55.942;37.314;2023-06-04T03:00:03;99805.38;;;6.73;76.61
44138;BME280;29800;55.942;37.314;2023-06-04T03:06:05;99813.97;;;6.95;76.50
44138;BME280;29800;55.942;37.314;2023-06-04T03:12:08;99831.38;;;7.13;75.63
44138;BME280;29800;55.942;37.314;2023-06-04T03:15:11;99826.47;;;7.22;75.13
44138;BME280;29800;55.942;37.314;2023-06-04T03:18:14;99835.16;;;7.30;74.34
44138;BME280;29800;55.942;37.314;2023-06-04T03:20:59;99837.59;;;7.39;74.27
44138;BME280;29800;55.942;37.314;2023-06-04T03:23:50;99840.47;;;7.44;74.60
44138;BME280;29800;55.942;37.314;2023-06-04T03:26:47;99842.88;;;7.52;74.83
44138;BME280;29800;55.942;37.314;2023-06-04T03:29:26;99844.47;;;7.60;74.48
44138;BME280;29800;55.942;37.314;2023-06-04T03:38:45;99859.28;;;7.82;73.80
44138;BME280;29800;55.942;37.314;2023-06-04T03:45:13;99857.00;;;7.98;73.67
44138;BME280;29800;55.942;37.314;2023-06-04T03:51:23;99863.94;;;8.12;74.17
44138;BME280;29800;55.942;37.314;2023-06-04T03:54:51;99863.38;;;8.22;73.36
44138;BME280;29800;55.942;37.314;2023-06-04T03:57:17;99866.00;;;8.28;73.34
44138;BME280;29800;55.942;37.314;2023-06-04T04:00:02;99865.22;;;8.40;73.62
44138;BME280;29800;55.942;37.314;2023-06-04T04:02:57;99869.91;;;8.51;73.00
44138;BME280;29800;55.942;37.314;2023-06-04T04:06:12;99881.06;;;8.61;72.73
44138;BME280;29800;55.942;37.314;2023-06-04T04:12:56;99876.72;;;8.84;71.50
44138;BME280;29800;55.942;37.314;2023-06-04T04:15:59;99871.97;;;8.91;71.63
44138;BME280;29800;55.942;37.314;2023-06-04T04:18:41;99880.41;;;9.01;71.64
44138;BME280;29800;55.942;37.314;2023-06-04T04:21:54;99874.72;;;9.15;71.75
44138;BME280;29800;55.942;37.314;2023-06-04T04:27:23;99876.38;;;9.28;70.46
44138;BME280;29800;55.942;37.314;2023-06-04T04:33:39;99882.66;;;9.52;71.28
44138;BME280;29800;55.942;37.314;2023-06-04T04:36:25;99879.91;;;9.64;70.88
44138;BME280;29800;55.942;37.314;2023-06-04T04:39:34;99878.69;;;9.71;70.40
44138;BME280;29800;55.942;37.314;2023-06-04T04:42:20;99894.25;;;9.83;69.94
44138;BME280;29800;55.942;37.314;2023-06-04T04:45:24;99878.06;;;9.93;70.26
44138;BME280;29800;55.942;37.314;2023-06-04T04:51:48;99882.88;;;10.43;70.30
44138;BME280;29800;55.942;37.314;2023-06-04T04:54:46;99883.09;;;11.21;69.42
44138;BME280;29800;55.942;37.314;2023-06-04T04:57:31;99884.56;;;11.68;66.38
44138;BME280;29800;55.942;37.314;2023-06-04T04:59:59;99891.84;;;12.24;65.58
44138;BME280;29800;55.942;37.314;2023-06-04T05:02:45;99881.59;;;12.68;64.28
44138;BME280;29800;55.942;37.314;2023-06-04T05:17:20;99879.34;;;14.67;58.89
44138;BME280;29800;55.942;37.314;2023-06-04T05:20:34;99885.97;;;14.97;56.91
44138;BME280;29800;55.942;37.314;2023-06-04T05:26:56;99887.84;;;14.55;56.40
44138;BME280;29800;55.942;37.314;2023-06-04T05:29:43;99888.66;;;14.56;56.45
44138;BME280;29800;55.942;37.314;2023-06-04T05:32:46;99885.13;;;14.70;56.51
44138;BME280;29800;55.942;37.314;2023-06-04T05:35:49;99882.38;;;14.65;54.85
44138;BME280;29800;55.942;37.314;2023-06-04T05:38:40;99882.38;;;14.70;56.19
44138;BME280;29800;55.942;37.314;2023-06-04T05:41:38;99872.75;;;14.63;54.53
44138;BME280;29800;55.942;37.314;2023-06-04T05:44:42;99878.25;;;14.78;53.90
44138;BME280;29800;55.942;37.314;2023-06-04T05:48:07;99876.63;;;14.98;54.12
44138;BME280;29800;55.942;37.314;2023-06-04T05:50:43;99885.44;;;14.95;53.31
44138;BME280;29800;55.942;37.314;2023-06-04T05:56:32;99881.00;;;15.40;54.06
44138;BME280;29800;55.942;37.314;2023-06-04T06:19:28;99873.69;;;15.95;48.81
44138;BME280;29800;55.942;37.314;2023-06-04T06:26:04;99882.53;;;15.92;49.37
44138;BME280;29800;55.942;37.314;2023-06-04T06:29:11;99880.03;;;15.96;50.09
44138;BME280;29800;55.942;37.314;2023-06-04T06:31:47;99889.19;;;15.81;47.76
44138;BME280;29800;55.942;37.314;2023-06-04T06:37:42;99880.16;;;16.25;49.95
44138;BME280;29800;55.942;37.314;2023-06-04T06:40:40;99885.13;;;16.28;49.66
44138;BME280;29800;55.942;37.314;2023-06-04T06:43:07;99886.75;;;16.29;47.95
44138;BME280;29800;55.942;37.314;2023-06-04T06:45:51;99874.72;;;16.05;47.65
44138;BME280;29800;55.942;37.314;2023-06-04T06:49:12;99875.97;;;15.68;47.36
44138;BME280;29800;55.942;37.314;2023-06-04T06:51:57;99884.88;;;15.08;47.91
44138;BME280;29800;55.942;37.314;2023-06-04T06:54:23;99873.53;;;14.58;48.08
44138;BME280;29800;55.942;37.314;2023-06-04T06:57:17;99884.50;;;14.32;49.57
44138;BME280;29800;55.942;37.314;2023-06-04T07:00:02;99882.00;;;14.31;50.99
44138;BME280;29800;55.942;37.314;2023-06-04T07:02:48;99878.16;;;14.27;48.02
44138;BME280;29800;55.942;37.314;2023-06-04T07:05:45;99893.56;;;14.28;48.30
44138;BME280;29800;55.942;37.314;2023-06-04T07:21:11;99888.06;;;14.28;47.67
44138;BME280;29800;55.942;37.314;2023-06-04T07:23:37;99886.69;;;14.30;47.59
44138;BME280;29800;55.942;37.314;2023-06-04T07:26:04;99886.97;;;14.24;48.02
44138;BME280;29800;55.942;37.314;2023-06-04T07:29:07;99889.19;;;14.32;47.76
44138;BME280;29800;55.942;37.314;2023-06-04T07:32:32;99885.88;;;14.30;47.62
44138;BME280;29800;55.942;37.314;2023-06-04T07:35:54;99894.09;;;14.25;46.44
44138;BME280;29800;55.942;37.314;2023-06-04T07:38:59;99895.22;;;14.19;47.15
44138;BME280;29800;55.942;37.314;2023-06-04T07:45:09;99912.22;;;14.05;46.94
44138;BME280;29800;55.942;37.314;2023-06-04T07:47:36;99918.19;;;13.87;48.60
44138;BME280;29800;55.942;37.314;2023-06-04T07:50:39;99915.38;;;13.76;47.33
44138;BME280;29800;55.942;37.314;2023-06-04T08:03:15;99921.31;;;13.53;47.05
44138;BME280;29800;55.942;37.314;2023-06-04T08:06:03;99922.38;;;13.52;47.28
44138;BME280;29800;55.942;37.314;2023-06-04T08:09:19;99922.91;;;13.49;47.03
44138;BME280;29800;55.942;37.314;2023-06-04T08:12:35;99926.16;;;13.40;47.33
44138;BME280;29800;55.942;37.314;2023-06-04T08:15:01;99920.09;;;13.38;47.85
44138;BME280;29800;55.942;37.314;2023-06-04T08:17:47;99919.09;;;13.50;48.21
44138;BME280;29800;55.942;37.314;2023-06-04T08:24:08;99915.44;;;13.44;46.59
44138;BME280;29800;55.942;37.314;2023-06-04T08:34:08;99923.38;;;13.35;47.58
44138;BME280;29800;55.942;37.314;2023-06-04T08:37:12;99930.53;;;13.36;47.64
44138;BME280;29800;55.942;37.314;2023-06-04T08:42:58;99927.63;;;13.53;48.20
44138;BME280;29800;55.942;37.314;2023-06-04T08:45:48;99939.16;;;13.50;48.92
44138;BME280;29800;55.942;37.314;2023-06-04T08:48:52;99927.38;;;13.60;47.73
44138;BME280;29800;55.942;37.314;2023-06-04T08:55:13;99927.16;;;13.67;44.86
44138;BME280;29800;55.942;37.314;2023-06-04T08:59:12;99920.06;;;13.76;46.44
44138;BME280;29800;55.942;37.314;2023-06-04T09:01:40;99920.34;;;13.79;46.27
44138;BME280;29800;55.942;37.314;2023-06-04T09:07:31;99918.94;;;14.35;44.18
44138;BME280;29800;55.942;37.314;2023-06-04T09:10:00;99920.66;;;14.62;44.02
44138;BME280;29800;55.942;37.314;2023-06-04T09:13:01;99914.66;;;14.96;41.05
44138;BME280;29800;55.942;37.314;2023-06-04T09:16:27;99911.31;;;15.24;42.38
44138;BME280;29800;55.942;37.314;2023-06-04T09:22:46;99923.13;;;15.56;40.70
44138;BME280;29800;55.942;37.314;2023-06-04T09:25:43;99920.41;;;15.46;39.87
44138;BME280;29800;55.942;37.314;2023-06-04T09:41:21;99941.78;;;14.41;44.03
44138;BME280;29800;55.942;37.314;2023-06-04T09:44:15;99939.34;;;14.49;43.86
44138;BME280;29800;55.942;37.314;2023-06-04T09:47:43;99933.38;;;14.73;43.47
44138;BME280;29800;55.942;37.314;2023-06-04T09:50:30;99936.13;;;14.68;43.59
44138;BME280;29800;55.942;37.314;2023-06-04T10:00:06;99918.97;;;14.56;44.77
44138;BME280;29800;55.942;37.314;2023-06-04T10:03:14;99909.66;;;14.72;44.11
44138;BME280;29800;55.942;37.314;2023-06-04T10:06:08;99923.16;;;14.74;43.37
44138;BME280;29800;55.942;37.314;2023-06-04T10:09:21;99923.47;;;14.87;42.94
44138;BME280;29800;55.942;37.314;2023-06-04T10:12:45;99916.84;;;14.83;43.42
44138;BME280;29800;55.942;37.314;2023-06-04T10:19:07;99910.25;;;14.74;43.02
44138;BME280;29800;55.942;37.314;2023-06-04T10:21:43;99916.25;;;14.61;43.14
44138;BME280;29800;55.942;37.314;2023-06-04T10:24:37;99914.84;;;14.58;43.27
44138;BME280;29800;55.942;37.314;2023-06-04T10:27:32;99914.84;;;14.58;42.87
44138;BME280;29800;55.942;37.314;2023-06-04T10:30:40;99901.13;;;14.68;43.49
44138;BME280;29800;55.942;37.314;2023-06-04T10:33:20;99908.03;;;14.81;42.31
44138;BME280;29800;55.942;37.314;2023-06-04T10:36:44;99906.66;;;15.15;41.29
44138;BME280;29800;55.942;37.314;2023-06-04T10:40:00;99908.28;;;15.41;42.26
44138;BME280;29800;55.942;37.314;2023-06-04T10:43:05;99912.41;;;15.49;40.15
44138;BME280;29800;55.942;37.314;2023-06-04T10:52:10;99912.03;;;16.02;39.16
44138;BME280;29800;55.942;37.314;2023-06-04T10:55:25;99913.72;;;15.88;37.66
44138;BME280;29800;55.942;37.314;2023-06-04T10:58:57;99918.44;;;15.87;39.54
44138;BME280;29800;55.942;37.314;2023-06-04T11:02:09;99902.38;;;15.94;38.89
44138;BME280;29800;55.942;37.314;2023-06-04T11:05:09;99899.59;;;15.99;38.55
44138;BME280;29800;55.942;37.314;2023-06-04T11:10:35;99903.31;;;16.29;40.08
44138;BME280;29800;55.942;37.314;2023-06-04T11:13:25;99912.41;;;16.35;38.20
44138;BME280;29800;55.942;37.314;2023-06-04T11:15:52;99917.16;;;16.24;38.27
44138;BME280;29800;55.942;37.314;2023-06-04T11:22:23;99914.19;;;16.05;38.55
44138;BME280;29800;55.942;37.314;2023-06-04T11:25:08;99917.25;;;16.04;37.26
44138;BME280;29800;55.942;37.314;2023-06-04T11:27:53;99910.13;;;15.92;37.34
44138;BME280;29800;55.942;37.314;2023-06-04T11:31:04;99906.22;;;15.98;36.93
44138;BME280;29800;55.942;37.314;2023-06-04T11:34:27;99901.47;;;16.14;36.76
44138;BME280;29800;55.942;37.314;2023-06-04T11:37:52;99895.47;;;16.02;35.94
44138;BME280;29800;55.942;37.314;2023-06-04T11:46:55;99896.81;;;16.05;36.23
44138;BME280;29800;55.942;37.314;2023-06-04T11:49:59;99903.13;;;16.15;35.79
44138;BME280;29800;55.942;37.314;2023-06-04T12:02:07;99912.31;;;16.01;37.54
44138;BME280;29800;55.942;37.314;2023-06-04T12:08:15;99915.00;;;16.16;37.33
44138;BME280;29800;55.942;37.314;2023-06-04T12:14:05;99918.56;;;16.22;37.35
44138;BME280;29800;55.942;37.314;2023-06-04T12:24:11;99904.00;;;16.06;38.23
44138;BME280;29800;55.942;37.314;2023-06-04T12:30:22;99901.34;;;16.40;36.66
44138;BME280;29800;55.942;37.314;2023-06-04T12:33:26;99902.69;;;16.43;34.99
44138;BME280;29800;55.942;37.314;2023-06-04T12:36:16;99913.50;;;16.39;35.25
44138;BME280;29800;55.942;37.314;2023-06-04T12:39:19;99908.66;;;16.15;34.52
44138;BME280;29800;55.942;37.314;2023-06-04T12:42:23;99907.34;;;15.97;34.86
44138;BME280;29800;55.942;37.314;2023-06-04T12:45:45;99907.28;;;16.08;36.13
44138;BME280;29800;55.942;37.314;2023-06-04T12:48:42;99908.38;;;16.17;36.18
44138;BME280;29800;55.942;37.314;2023-06-04T12:51:57;99907.78;;;16.25;36.79
44138;BME280;29800;55.942;37.314;2023-06-04T12:58:07;99913.13;;;16.51;36.77
44138;BME280;29800;55.942;37.314;2023-06-04T13:03:49;99904.03;;;16.95;34.15
44138;BME280;29800;55.942;37.314;2023-06-04T13:06:15;99898.59;;;16.80;33.25
44138;BME280;29800;55.942;37.314;2023-06-04T13:09:00;99898.34;;;16.76;35.16
44138;BME280;29800;55.942;37.314;2023-06-04T13:15:28;99892.72;;;16.47;35.74
44138;BME280;29800;55.942;37.314;2023-06-04T13:18:06;99895.56;;;16.31;36.27
44138;BME280;29800;55.942;37.314;2023-06-04T13:20:51;99891.06;;;16.46;35.69
44138;BME280;29800;55.942;37.314;2023-06-04T13:23:49;99889.88;;;16.62;35.05
44138;BME280;29800;55.942;37.314;2023-06-04T13:26:28;99894.75;;;16.76;34.21
44138;BME280;29800;55.942;37.314;2023-06-04T13:29:06;99887.78;;;16.88;36.10
44138;BME280;29800;55.942;37.314;2023-06-04T13:32:11;99892.22;;;16.84;34.10
44138;BME280;29800;55.942;37.314;2023-06-04T13:35:33;99895.78;;;16.90;35.88
44138;BME280;29800;55.942;37.314;2023-06-04T13:37:59;99891.56;;;16.98;35.31
44138;BME280;29800;55.942;37.314;2023-06-04T13:43:41;99893.31;;;16.83;34.52
44138;BME280;29800;55.942;37.314;2023-06-04T13:46:44;99883.66;;;16.81;34.40
44138;BME280;29800;55.942;37.314;2023-06-04T13:52:51;99884.34;;;16.62;36.61
44138;BME280;29800;55.942;37.314;2023-06-04T13:58:58;99880.34;;;16.79;35.46
44138;BME280;29800;55.942;37.314;2023-06-04T14:01:55;99881.34;;;16.98;35.02
44138;BME280;29800;55.942;37.314;2023-06-04T14:04:53;99881.25;;;17.08;35.98
44138;BME280;29800;55.942;37.314;2023-06-04T14:07:59;99880.19;;;17.04;34.58
44138;BME280;29800;55.942;37.314;2023-06-04T14:10:56;99873.00;;;17.03;33.65
44138;BME280;29800;55.942;37.314;2023-06-04T14:13:23;99875.19;;;17.06;34.55
44138;BME280;29800;55.942;37.314;2023-06-04T14:16:01;99877.38;;;17.09;34.29
44138;BME280;29800;55.942;37.314;2023-06-04T14:18:37;99876.50;;;17.14;34.84
44138;BME280;29800;55.942;37.314;2023-06-04T14:21:19;99879.09;;;17.05;34.46
44138;BME280;29800;55.942;37.314;2023-06-04T14:24:16;99877.38;;;17.09;34.47
44138;BME280;29800;55.942;37.314;2023-06-04T14:27:25;99877.31;;;17.15;34.49
44138;BME280;29800;55.942;37.314;2023-06-04T14:30:19;99881.22;;;17.14;34.22
44138;BME280;29800;55.942;37.314;2023-06-04T14:44:46;99875.31;;;16.91;33.81
44138;BME280;29800;55.942;37.314;2023-06-04T14:47:14;99874.41;;;17.01;33.95
44138;BME280;29800;55.942;37.314;2023-06-04T14:49:40;99872.47;;;17.01;34.11
44138;BME280;29800;55.942;37.314;2023-06-04T14:52:06;99872.22;;;16.98;33.66
44138;BME280;29800;55.942;37.314;2023-06-04T14:54:33;99879.72;;;16.92;33.75
44138;BME280;29800;55.942;37.314;2023-06-04T14:57:01;99885.03;;;16.83;33.63
44138;BME280;29800;55.942;37.314;2023-06-04T14:59:28;99880.38;;;16.73;34.49
44138;BME280;29800;55.942;37.314;2023-06-04T15:01:54;99884.59;;;16.66;34.32
44138;BME280;29800;55.942;37.314;2023-06-04T15:04:20;99876.66;;;16.54;34.13
44138;BME280;29800;55.942;37.314;2023-06-04T15:06:47;99878.16;;;16.36;34.68
44138;BME280;29800;55.942;37.314;2023-06-04T15:09:13;99874.59;;;16.30;35.20
44138;BME280;29800;55.942;37.314;2023-06-04T15:11:40;99876.06;;;16.17;35.57
44138;BME280;29800;55.942;37.314;2023-06-04T15:14:06;99877.50;;;15.99;35.79
44138;BME280;29800;55.942;37.314;2023-06-04T15:16:32;99875.66;;;15.85;35.84
44138;BME280;29800;55.942;37.314;2023-06-04T15:18:58;99878.19;;;15.76;36.54
44138;BME280;29800;55.942;37.314;2023-06-04T15:21:25;99888.06;;;15.72;36.74
44138;BME280;29800;55.942;37.314;2023-06-04T15:23:51;99886.97;;;15.62;36.66
44138;BME280;29800;55.942;37.314;2023-06-04T15:26:18;99878.19;;;15.55;36.72
44138;BME280;29800;55.942;37.314;2023-06-04T15:28:44;99872.66;;;15.55;36.22
44138;BME280;29800;55.942;37.314;2023-06-04T15:31:11;99877.09;;;15.51;37.23
44138;BME280;29800;55.942;37.314;2023-06-04T15:33:37;99868.53;;;15.58;37.11
44138;BME280;29800;55.942;37.314;2023-06-04T15:36:04;99872.94;;;15.54;37.24
44138;BME280;29800;55.942;37.314;2023-06-04T15:38:32;99881.25;;;15.49;36.99
44138;BME280;29800;55.942;37.314;2023-06-04T15:40:59;99879.88;;;15.41;36.83
44138;BME280;29800;55.942;37.314;2023-06-04T15:43:25;99872.72;;;15.40;38.23
44138;BME280;29800;55.942;37.314;2023-06-04T15:45:52;99878.22;;;15.45;37.20
44138;BME280;29800;55.942;37.314;2023-06-04T15:48:18;99870.22;;;15.43;36.99
44138;BME280;29800;55.942;37.314;2023-06-04T15:50:44;99873.53;;;15.40;37.08
44138;BME280;29800;55.942;37.314;2023-06-04T15:53:11;99873.81;;;15.39;38.04
44138;BME280;29800;55.942;37.314;2023-06-04T15:55:37;99871.06;;;15.34;37.86
44138;BME280;29800;55.942;37.314;2023-06-04T15:58:04;99877.13;;;15.31;38.50
44138;BME280;29800;55.942;37.314;2023-06-04T16:00:30;99876.06;;;15.27;39.04
44138;BME280;29800;55.942;37.314;2023-06-04T16:02:56;99871.38;;;15.17;38.70
44138;BME280;29800;55.942;37.314;2023-06-04T16:05:23;99872.75;;;15.14;38.64
44138;BME280;29800;55.942;37.314;2023-06-04T16:07:49;99871.03;;;15.49;42.38
44138;BME280;29800;55.942;37.314;2023-06-04T16:10:15;99866.94;;;15.41;39.72
44138;BME280;29800;55.942;37.314;2023-06-04T16:12:42;99868.28;;;15.39;39.40
44138;BME280;29800;55.942;37.314;2023-06-04T16:15:08;99862.25;;;15.37;39.47
44138;BME280;29800;55.942;37.314;2023-06-04T16:17:35;99867.22;;;15.35;38.46
44138;BME280;29800;55.942;37.314;2023-06-04T16:20:01;99867.19;;;15.30;38.38
44138;BME280;29800;55.942;37.314;2023-06-04T16:22:30;99858.66;;;15.26;37.73
44138;BME280;29800;55.942;37.314;2023-06-04T16:24:56;99862.81;;;15.23;38.48
44138;BME280;29800;55.942;37.314;2023-06-04T16:27:23;99859.50;;;15.16;38.37
44138;BME280;29800;55.942;37.314;2023-06-04T16:29:49;99852.66;;;15.09;38.95
44138;BME280;29800;55.942;37.314;2023-06-04T16:32:15;99861.75;;;15.04;39.75
44138;BME280;29800;55.942;37.314;2023-06-04T16:34:42;99860.34;;;15.01;40.71
44138;BME280;29800;55.942;37.314;2023-06-04T16:37:08;99866.13;;;15.00;39.74
44138;BME280;29800;55.942;37.314;2023-06-04T16:39:34;99862.84;;;14.98;39.92
44138;BME280;29800;55.942;37.314;2023-06-04T16:42:00;99860.34;;;14.96;40.14
44138;BME280;29800;55.942;37.314;2023-06-04T16:44:29;99867.81;;;14.91;40.41
44138;BME280;29800;55.942;37.314;2023-06-04T16:46:55;99864.22;;;14.85;40.39
44138;BME280;29800;55.942;37.314;2023-06-04T16:49:22;99868.91;;;14.84;39.72
44138;BME280;29800;55.942;37.314;2023-06-04T16:51:48;99863.94;;;14.81;40.17
44138;BME280;29800;55.942;37.314;2023-06-04T16:54:15;99867.50;;;14.82;40.00
44138;BME280;29800;55.942;37.314;2023-06-04T16:56:41;99859.53;;;14.75;40.47
44138;BME280;29800;55.942;37.314;2023-06-04T16:59:07;99867.25;;;14.68;40.65
44138;BME280;29800;55.942;37.314;2023-06-04T17:01:34;99862.28;;;14.60;40.72
44138;BME280;29800;55.942;37.314;2023-06-04T17:04:00;99868.84;;;14.53;40.70
44138;BME280;29800;55.942;37.314;2023-06-04T17:06:26;99871.06;;;14.46;40.54
44138;BME280;29800;55.942;37.314;2023-06-04T17:08:53;99869.66;;;14.39;41.08
44138;BME280;29800;55.942;37.314;2023-06-04T17:11:19;99865.78;;;14.34;41.64
44138;BME280;29800;55.942;37.314;2023-06-04T17:13:45;99877.03;;;14.28;41.48
44138;BME280;29800;55.942;37.314;2023-06-04T17:16:12;99866.03;;;14.23;41.85
44138;BME280;29800;55.942;37.314;2023-06-04T17:18:39;99872.34;;;14.18;41.53
44138;BME280;29800;55.942;37.314;2023-06-04T17:21:05;99874.81;;;14.14;42.19
44138;BME280;29800;55.942;37.314;2023-06-04T17:23:31;99883.59;;;14.11;42.20
44138;BME280;29800;55.942;37.314;2023-06-04T17:25:57;99874.78;;;14.04;42.85
44138;BME280;29800;55.942;37.314;2023-06-04T17:28:25;99872.28;;;13.97;43.89
44138;BME280;29800;55.942;37.314;2023-06-04T17:30:52;99873.91;;;13.93;43.61
44138;BME280;29800;55.942;37.314;2023-06-04T17:33:19;99882.41;;;13.87;44.92
44138;BME280;29800;55.942;37.314;2023-06-04T17:35:45;99884.84;;;13.78;45.84
44138;BME280;29800;55.942;37.314;2023-06-04T17:38:11;99886.44;;;13.69;46.72
44138;BME280;29800;55.942;37.314;2023-06-04T17:40:37;99878.41;;;13.57;47.23
44138;BME280;29800;55.942;37.314;2023-06-04T17:43:04;99880.56;;;13.45;48.60
44138;BME280;29800;55.942;37.314;2023-06-04T17:45:30;99886.81;;;13.35;47.03
44138;BME280;29800;55.942;37.314;2023-06-04T17:47:58;99887.56;;;13.25;48.33
44138;BME280;29800;55.942;37.314;2023-06-04T17:50:24;99887.97;;;13.12;49.17
44138;BME280;29800;55.942;37.314;2023-06-04T17:52:50;99887.34;;;12.99;51.06
44138;BME280;29800;55.942;37.314;2023-06-04T17:55:17;99891.66;;;12.90;50.23
44138;BME280;29800;55.942;37.314;2023-06-04T17:57:43;99884.16;;;12.80;50.02
44138;BME280;29800;55.942;37.314;2023-06-04T18:00:10;99889.31;;;12.72;51.73
44138;BME280;29800;55.942;37.314;2023-06-04T18:02:40;99892.22;;;12.60;52.32
44138;BME280;29800;55.942;37.314;2023-06-04T18:05:08;99887.16;;;12.46;52.76
44138;BME280;29800;55.942;37.314;2023-06-04T18:07:35;99882.66;;;12.35;53.12
44138;BME280;29800;55.942;37.314;2023-06-04T18:10:02;99888.03;;;12.25;53.31
44138;BME280;29800;55.942;37.314;2023-06-04T18:12:36;99878.84;;;12.14;53.76
44138;BME280;29800;55.942;37.314;2023-06-04T18:15:03;99885.28;;;12.03;55.36
44138;BME280;29800;55.942;37.314;2023-06-04T18:17:33;99888.41;;;11.89;54.38
44138;BME280;29800;55.942;37.314;2023-06-04T18:20:00;99892.66;;;11.80;55.46
44138;BME280;29800;55.942;37.314;2023-06-04T18:22:26;99879.63;;;11.70;55.56
44138;BME280;29800;55.942;37.314;2023-06-04T18:24:52;99884.75;;;11.62;56.52
44138;BME280;29800;55.942;37.314;2023-06-04T18:27:19;99881.88;;;11.51;56.39
44138;BME280;29800;55.942;37.314;2023-06-04T18:29:45;99889.69;;;11.43;57.09
44138;BME280;29800;55.942;37.314;2023-06-04T18:32:12;99881.88;;;11.34;56.97
44138;BME280;29800;55.942;37.314;2023-06-04T18:34:38;99886.72;;;11.27;57.85
44138;BME280;29800;55.942;37.314;2023-06-04T18:37:05;99891.03;;;11.23;57.63
44138;BME280;29800;55.942;37.314;2023-06-04T18:39:32;99881.91;;;11.17;57.48
44138;BME280;29800;55.942;37.314;2023-06-04T18:42:00;99885.41;;;11.13;58.39
44138;BME280;29800;55.942;37.314;2023-06-04T18:44:28;99888.31;;;11.06;56.75
44138;BME280;29800;55.942;37.314;2023-06-04T18:46:54;99882.25;;;11.04;58.09
44138;BME280;29800;55.942;37.314;2023-06-04T18:49:21;99886.31;;;11.01;57.90
44138;BME280;29800;55.942;37.314;2023-06-04T18:51:51;99878.59;;;10.98;57.65
44138;BME280;29800;55.942;37.314;2023-06-04T18:54:18;99883.50;;;10.96;58.14
44138;BME280;29800;55.942;37.314;2023-06-04T18:56:45;99882.34;;;10.92;58.21
44138;BME280;29800;55.942;37.314;2023-06-04T18:59:13;99873.53;;;10.90;57.56
44138;BME280;29800;55.942;37.314;2023-06-04T19:01:40;99872.72;;;10.90;58.65
44138;BME280;29800;55.942;37.314;2023-06-04T19:04:06;99875.69;;;10.88;58.45